TAF KFTW
AMD KFTW 080301Z 0803/0824 07003KT P6SM BKN250 FM081100 13005KT 4SM BR SCT019 FM081300 10005KT 2SM BR BKN007 TEMPO 0813/0816 3/4SM BR BKN004 FM081700 13007KT P6SM BKN060=
METAR KFTW
WC KFTW
WS KFTW
WV KFTW